sensor_id;sensor_type;location;lat;lon;timestamp;pressure;altitude;pressure_sealevel;temperature;humidity
84884;BME280;75145;49.188;8.122;2024-03-25T00:01:21;99213.28;;;4.96;87.16
84884;BME280;75145;49.188;8.122;2024-03-25T00:03:46;99212.41;;;4.95;86.45
84884;BME280;75145;49.188;8.122;2024-03-25T00:06:11;99221.88;;;4.98;87.25
84884;BME280;75145;49.188;8.122;2024-03-25T00:08:37;99221.97;;;4.96;87.38
84884;BME280;75145;49.188;8.122;2024-03-25T00:11:02;99223.09;;;4.92;86.94
84884;BME280;75145;49.188;8.122;2024-03-25T00:13:27;99222.25;;;4.92;87.17
84884;BME280;75145;49.188;8.122;2024-03-25T00:15:53;99238.19;;;4.89;87.42
84884;BME280;75145;49.188;8.122;2024-03-25T00:18:18;99234.72;;;4.88;87.27
84884;BME280;75145;49.188;8.122;2024-03-25T00:20:43;99235.38;;;4.92;87.07
84884;BME280;75145;49.188;8.122;2024-03-25T00:23:09;99235.91;;;4.97;86.65
84884;BME280;75145;49.188;8.122;2024-03-25T00:25:34;99238.53;;;4.97;86.66
84884;BME280;75145;49.188;8.122;2024-03-25T00:29:07;99244.50;;;4.99;86.60
84884;BME280;75145;49.188;8.122;2024-03-25T00:31:33;99244.09;;;5.05;86.44
84884;BME280;75145;49.188;8.122;2024-03-25T00:33:58;99232.97;;;5.01;86.42
84884;BME280;75145;49.188;8.122;2024-03-25T00:36:23;99234.88;;;4.99;86.36
84884;BME280;75145;49.188;8.122;2024-03-25T00:38:49;99232.97;;;5.01;86.56
84884;BME280;75145;49.188;8.122;2024-03-25T00:41:14;99244.50;;;4.99;86.67
84884;BME280;75145;49.188;8.122;2024-03-25T00:43:39;99215.75;;;4.85;86.69
84884;BME280;75145;49.188;8.122;2024-03-25T00:46:05;99236.75;;;4.97;86.83
84884;BME280;75145;49.188;8.122;2024-03-25T00:48:30;99241.69;;;5.02;86.80
84884;BME280;75145;49.188;8.122;2024-03-25T00:50:55;99234.03;;;4.99;87.22
84884;BME280;75145;49.188;8.122;2024-03-25T00:53:21;99236.53;;;5.00;87.13
84884;BME280;75145;49.188;8.122;2024-03-25T00:55:46;99241.16;;;4.97;87.32
84884;BME280;75145;49.188;8.122;2024-03-25T00:58:11;99226.03;;;4.88;87.55
84884;BME280;75145;49.188;8.122;2024-03-25T01:00:36;99230.03;;;4.93;87.86
84884;BME280;75145;49.188;8.122;2024-03-25T01:03:02;99232.84;;;4.90;88.20
84884;BME280;75145;49.188;8.122;2024-03-25T01:05:27;99226.97;;;4.87;88.12
84884;BME280;75145;49.188;8.122;2024-03-25T01:07:53;99227.19;;;4.84;87.91
84884;BME280;75145;49.188;8.122;2024-03-25T01:10:18;99231.66;;;4.82;89.01
84884;BME280;75145;49.188;8.122;2024-03-25T01:12:43;99232.28;;;4.72;89.67
84884;BME280;75145;49.188;8.122;2024-03-25T01:15:08;99235.06;;;4.69;89.63
84884;BME280;75145;49.188;8.122;2024-03-25T01:17:37;99237.53;;;4.72;89.27
84884;BME280;75145;49.188;8.122;2024-03-25T01:20:02;99238.75;;;4.67;89.39
84884;BME280;75145;49.188;8.122;2024-03-25T01:22:30;99239.59;;;4.67;89.21
84884;BME280;75145;49.188;8.122;2024-03-25T01:24:55;99231.19;;;4.62;89.13
84884;BME280;75145;49.188;8.122;2024-03-25T01:27:21;99238.09;;;4.63;89.27
84884;BME280;75145;49.188;8.122;2024-03-25T01:29:46;99226.16;;;4.59;89.63
84884;BME280;75145;49.188;8.122;2024-03-25T01:32:12;99242.41;;;4.64;89.40
84884;BME280;75145;49.188;8.122;2024-03-25T01:34:37;99233.25;;;4.57;89.54
84884;BME280;75145;49.188;8.122;2024-03-25T01:37:02;99230.47;;;4.60;89.48
84884;BME280;75145;49.188;8.122;2024-03-25T01:39:28;99232.34;;;4.58;89.30
84884;BME280;75145;49.188;8.122;2024-03-25T01:41:54;99226.53;;;4.53;89.10
84884;BME280;75145;49.188;8.122;2024-03-25T01:44:19;99222.88;;;4.56;89.64
84884;BME280;75145;49.188;8.122;2024-03-25T01:46:44;99236.63;;;4.59;89.51
84884;BME280;75145;49.188;8.122;2024-03-25T01:49:10;99231.56;;;4.56;90.24
84884;BME280;75145;49.188;8.122;2024-03-25T01:51:37;99226.34;;;4.56;89.57
84884;BME280;75145;49.188;8.122;2024-03-25T01:54:04;99224.50;;;4.58;89.86
84884;BME280;75145;49.188;8.122;2024-03-25T01:56:31;99221.09;;;4.56;89.56
84884;BME280;75145;49.188;8.122;2024-03-25T01:58:59;99216.06;;;4.53;89.03
84884;BME280;75145;49.188;8.122;2024-03-25T02:01:24;99217.75;;;4.54;89.31
84884;BME280;75145;49.188;8.122;2024-03-25T02:03:50;99221.88;;;4.58;89.34
84884;BME280;75145;49.188;8.122;2024-03-25T02:06:17;99222.78;;;4.57;89.54
84884;BME280;75145;49.188;8.122;2024-03-25T02:08:43;99216.28;;;4.50;89.43
84884;BME280;75145;49.188;8.122;2024-03-25T02:11:09;99214.38;;;4.52;89.66
84884;BME280;75145;49.188;8.122;2024-03-25T02:13:36;99223.19;;;4.51;89.41
84884;BME280;75145;49.188;8.122;2024-03-25T02:16:02;99217.13;;;4.51;89.35
84884;BME280;75145;49.188;8.122;2024-03-25T02:18:29;99220.66;;;4.50;89.04
84884;BME280;75145;49.188;8.122;2024-03-25T02:20:56;99220.66;;;4.50;89.86
84884;BME280;75145;49.188;8.122;2024-03-25T02:23:21;99208.72;;;4.46;89.37
84884;BME280;75145;49.188;8.122;2024-03-25T02:25:50;99207.88;;;4.45;89.56
84884;BME280;75145;49.188;8.122;2024-03-25T02:28:16;99207.13;;;4.43;89.67
84884;BME280;75145;49.188;8.122;2024-03-25T02:30:41;99205.44;;;4.42;89.80
84884;BME280;75145;49.188;8.122;2024-03-25T02:33:07;99202.94;;;4.40;89.56
84884;BME280;75145;49.188;8.122;2024-03-25T02:35:32;99199.38;;;4.41;89.73
84884;BME280;75145;49.188;8.122;2024-03-25T02:37:58;99189.59;;;4.31;90.03
84884;BME280;75145;49.188;8.122;2024-03-25T02:40:23;99196.50;;;4.32;90.00
84884;BME280;75145;49.188;8.122;2024-03-25T02:42:49;99195.13;;;4.26;90.05
84884;BME280;75145;49.188;8.122;2024-03-25T02:45:15;99198.38;;;4.30;89.61
84884;BME280;75145;49.188;8.122;2024-03-25T02:47:40;99194.38;;;4.24;90.38
84884;BME280;75145;49.188;8.122;2024-03-25T02:50:06;99188.41;;;4.22;90.02
84884;BME280;75145;49.188;8.122;2024-03-25T02:52:32;99179.91;;;4.19;90.37
84884;BME280;75145;49.188;8.122;2024-03-25T02:54:57;99188.69;;;4.18;90.46
84884;BME280;75145;49.188;8.122;2024-03-25T02:57:22;99188.91;;;4.14;90.27
84884;BME280;75145;49.188;8.122;2024-03-25T02:59:48;99183.28;;;4.06;90.52
84884;BME280;75145;49.188;8.122;2024-03-25T03:02:13;99183.13;;;4.09;90.38
84884;BME280;75145;49.188;8.122;2024-03-25T03:04:38;99184.16;;;4.07;90.49
84884;BME280;75145;49.188;8.122;2024-03-25T03:07:04;99187.06;;;4.02;90.73
84884;BME280;75145;49.188;8.122;2024-03-25T03:09:29;99177.91;;;3.95;91.38
84884;BME280;75145;49.188;8.122;2024-03-25T03:11:55;99184.84;;;3.96;91.25
84884;BME280;75145;49.188;8.122;2024-03-25T03:14:20;99188.94;;;4.00;90.50
84884;BME280;75145;49.188;8.122;2024-03-25T03:16:46;99190.22;;;3.93;91.04
84884;BME280;75145;49.188;8.122;2024-03-25T03:19:11;99202.41;;;3.94;90.87
84884;BME280;75145;49.188;8.122;2024-03-25T03:21:36;99193.63;;;3.95;90.76
84884;BME280;75145;49.188;8.122;2024-03-25T03:24:02;99195.94;;;4.00;90.20
84884;BME280;75145;49.188;8.122;2024-03-25T03:26:28;99190.06;;;3.96;90.36
84884;BME280;75145;49.188;8.122;2024-03-25T03:28:54;99205.38;;;4.02;90.16
84884;BME280;75145;49.188;8.122;2024-03-25T03:31:19;99203.31;;;4.07;89.55
84884;BME280;75145;49.188;8.122;2024-03-25T03:33:47;99198.66;;;3.98;90.32
84884;BME280;75145;49.188;8.122;2024-03-25T03:36:12;99186.88;;;3.91;90.41
84884;BME280;75145;49.188;8.122;2024-03-25T03:38:37;99204.81;;;3.97;89.94
84884;BME280;75145;49.188;8.122;2024-03-25T03:41:03;99207.50;;;4.10;89.69
84884;BME280;75145;49.188;8.122;2024-03-25T03:43:28;99208.56;;;4.07;89.72
84884;BME280;75145;49.188;8.122;2024-03-25T03:45:54;99205.38;;;4.02;89.70
84884;BME280;75145;49.188;8.122;2024-03-25T03:48:19;99206.41;;;4.00;89.94
84884;BME280;75145;49.188;8.122;2024-03-25T03:50:45;99206.31;;;4.01;89.77
84884;BME280;75145;49.188;8.122;2024-03-25T03:53:10;99198.91;;;3.94;89.80
84884;BME280;75145;49.188;8.122;2024-03-25T03:55:36;99198.44;;;4.01;89.84
84884;BME280;75145;49.188;8.122;2024-03-25T03:58:02;99199.69;;;3.96;90.07
84884;BME280;75145;49.188;8.122;2024-03-25T04:00:28;99196.06;;;3.84;89.96
84884;BME280;75145;49.188;8.122;2024-03-25T04:02:53;99199.22;;;3.89;89.94
84884;BME280;75145;49.188;8.122;2024-03-25T04:05:18;99194.19;;;3.86;90.23
84884;BME280;75145;49.188;8.122;2024-03-25T04:07:44;99191.66;;;3.84;90.03
84884;BME280;75145;49.188;8.122;2024-03-25T04:10:10;99201.28;;;3.84;89.64
84884;BME280;75145;49.188;8.122;2024-03-25T04:12:35;99200.44;;;3.83;90.19
84884;BME280;75145;49.188;8.122;2024-03-25T04:15:02;99208.56;;;3.79;89.87
84884;BME280;75145;49.188;8.122;2024-03-25T04:17:28;99201.75;;;3.76;90.09
84884;BME280;75145;49.188;8.122;2024-03-25T04:19:53;99204.38;;;3.76;90.04
84884;BME280;75145;49.188;8.122;2024-03-25T04:22:18;99204.38;;;3.76;90.00
84884;BME280;75145;49.188;8.122;2024-03-25T04:24:44;99201.31;;;3.70;90.09
84884;BME280;75145;49.188;8.122;2024-03-25T04:27:09;99197.19;;;3.66;90.47
84884;BME280;75145;49.188;8.122;2024-03-25T04:29:35;99196.34;;;3.65;90.25
84884;BME280;75145;49.188;8.122;2024-03-25T04:32:00;99182.91;;;3.57;90.48
84884;BME280;75145;49.188;8.122;2024-03-25T04:34:27;99192.34;;;3.60;90.68
84884;BME280;75145;49.188;8.122;2024-03-25T04:36:52;99194.56;;;3.51;90.61
84884;BME280;75145;49.188;8.122;2024-03-25T04:39:18;99192.34;;;3.45;90.82
84884;BME280;75145;49.188;8.122;2024-03-25T04:41:44;99197.28;;;3.50;90.98
84884;BME280;75145;49.188;8.122;2024-03-25T04:44:09;99191.41;;;3.46;91.07
84884;BME280;75145;49.188;8.122;2024-03-25T04:46:34;99193.28;;;3.44;90.84
84884;BME280;75145;49.188;8.122;2024-03-25T04:49:00;99193.28;;;3.44;90.76
84884;BME280;75145;49.188;8.122;2024-03-25T04:51:25;99194.47;;;3.39;90.58
84884;BME280;75145;49.188;8.122;2024-03-25T04:53:52;99194.03;;;3.46;90.50
84884;BME280;75145;49.188;8.122;2024-03-25T04:56:18;99202.06;;;3.43;90.42
84884;BME280;75145;49.188;8.122;2024-03-25T04:58:43;99205.56;;;3.42;90.35
84884;BME280;75145;49.188;8.122;2024-03-25T05:01:08;99201.38;;;3.40;90.97
84884;BME280;75145;49.188;8.122;2024-03-25T05:03:34;99209.00;;;3.29;90.76
84884;BME280;75145;49.188;8.122;2024-03-25T05:05:59;99204.81;;;3.26;91.16
84884;BME280;75145;49.188;8.122;2024-03-25T05:08:24;99209.84;;;3.29;91.08
84884;BME280;75145;49.188;8.122;2024-03-25T05:10:50;99204.47;;;3.32;91.18
84884;BME280;75145;49.188;8.122;2024-03-25T05:13:15;99208.47;;;3.38;90.61
84884;BME280;75145;49.188;8.122;2024-03-25T05:15:40;99196.88;;;3.28;90.54
84884;BME280;75145;49.188;8.122;2024-03-25T05:18:06;99201.47;;;3.24;91.07
84884;BME280;75145;49.188;8.122;2024-03-25T05:20:31;99214.44;;;3.25;91.05
84884;BME280;75145;49.188;8.122;2024-03-25T05:22:56;99212.47;;;3.29;91.23
84884;BME280;75145;49.188;8.122;2024-03-25T05:25:22;99217.44;;;3.34;90.71
84884;BME280;75145;49.188;8.122;2024-03-25T05:27:53;99218.56;;;3.44;90.46
84884;BME280;75145;49.188;8.122;2024-03-25T05:30:19;99196.63;;;3.46;89.74
84884;BME280;75145;49.188;8.122;2024-03-25T05:32:44;99217.53;;;3.75;88.87
84884;BME280;75145;49.188;8.122;2024-03-25T05:35:09;99208.84;;;3.89;87.95
84884;BME280;75145;49.188;8.122;2024-03-25T05:37:35;99198.56;;;4.00;87.39
84884;BME280;75145;49.188;8.122;2024-03-25T05:40:01;99209.78;;;4.29;86.76
84884;BME280;75145;49.188;8.122;2024-03-25T05:42:26;99203.91;;;4.52;85.81
84884;BME280;75145;49.188;8.122;2024-03-25T05:44:52;99205.69;;;4.79;84.84
84884;BME280;75145;49.188;8.122;2024-03-25T05:47:17;99210.94;;;4.91;83.65
84884;BME280;75145;49.188;8.122;2024-03-25T05:49:42;99206.66;;;5.03;82.99
84884;BME280;75145;49.188;8.122;2024-03-25T05:52:08;99204.53;;;5.48;81.34
84884;BME280;75145;49.188;8.122;2024-03-25T05:54:33;99201.34;;;5.94;79.25
84884;BME280;75145;49.188;8.122;2024-03-25T05:56:58;99205.28;;;6.12;78.28
84884;BME280;75145;49.188;8.122;2024-03-25T05:59:23;99198.72;;;6.54;76.49
84884;BME280;75145;49.188;8.122;2024-03-25T06:01:49;99198.19;;;6.62;77.07
84884;BME280;75145;49.188;8.122;2024-03-25T06:04:14;99205.31;;;6.60;76.10
84884;BME280;75145;49.188;8.122;2024-03-25T06:06:39;99203.41;;;6.14;77.71
84884;BME280;75145;49.188;8.122;2024-03-25T06:09:05;99195.66;;;6.00;78.46
84884;BME280;75145;49.188;8.122;2024-03-25T06:11:30;99209.53;;;6.02;79.52
84884;BME280;75145;49.188;8.122;2024-03-25T06:13:56;99207.72;;;5.89;78.69
84884;BME280;75145;49.188;8.122;2024-03-25T06:16:21;99211.84;;;5.94;78.68
84884;BME280;75145;49.188;8.122;2024-03-25T06:18:46;99209.22;;;6.30;77.51
84884;BME280;75145;49.188;8.122;2024-03-25T06:21:12;99209.41;;;6.40;77.86
84884;BME280;75145;49.188;8.122;2024-03-25T06:23:38;99209.16;;;6.43;77.76
84884;BME280;75145;49.188;8.122;2024-03-25T06:26:03;99204.03;;;6.05;78.80
84884;BME280;75145;49.188;8.122;2024-03-25T06:28:29;99216.59;;;6.25;78.38
84884;BME280;75145;49.188;8.122;2024-03-25T06:30:57;99208.84;;;6.24;77.81
84884;BME280;75145;49.188;8.122;2024-03-25T06:33:41;99225.06;;;5.54;80.14
84884;BME280;75145;49.188;8.122;2024-03-25T06:36:25;99234.28;;;7.41;79.14
84884;BME280;75145;49.188;8.122;2024-03-25T06:38:50;99235.16;;;5.60;79.31
84884;BME280;75145;49.188;8.122;2024-03-25T06:41:21;99234.94;;;5.38;81.55
84884;BME280;75145;49.188;8.122;2024-03-25T06:43:46;99242.13;;;4.82;83.77
84884;BME280;75145;49.188;8.122;2024-03-25T06:46:12;99238.78;;;4.80;84.68
84884;BME280;75145;49.188;8.122;2024-03-25T06:48:37;99239.13;;;4.88;83.91
84884;BME280;75145;49.188;8.122;2024-03-25T06:51:02;99244.75;;;4.82;84.96
84884;BME280;75145;49.188;8.122;2024-03-25T06:53:28;99235.78;;;5.51;82.59
84884;BME280;75145;49.188;8.122;2024-03-25T06:56:00;99243.31;;;5.68;81.00
84884;BME280;75145;49.188;8.122;2024-03-25T06:58:26;99233.84;;;6.77;77.21
84884;BME280;75145;49.188;8.122;2024-03-25T07:00:52;99244.06;;;6.69;76.81
84884;BME280;75145;49.188;8.122;2024-03-25T07:03:19;99232.94;;;7.24;75.34
84884;BME280;75145;49.188;8.122;2024-03-25T07:05:46;99237.84;;;6.46;79.21
84884;BME280;75145;49.188;8.122;2024-03-25T07:08:12;99241.44;;;6.69;77.85
84884;BME280;75145;49.188;8.122;2024-03-25T07:10:37;99238.25;;;7.69;73.91
84884;BME280;75145;49.188;8.122;2024-03-25T07:13:03;99244.84;;;8.19;72.37
84884;BME280;75145;49.188;8.122;2024-03-25T07:15:29;99235.63;;;9.74;66.93
84884;BME280;75145;49.188;8.122;2024-03-25T07:17:54;99221.88;;;10.51;62.31
84884;BME280;75145;49.188;8.122;2024-03-25T07:20:19;99223.50;;;9.71;65.03
84884;BME280;75145;49.188;8.122;2024-03-25T07:22:47;99220.06;;;10.51;62.02
84884;BME280;75145;49.188;8.122;2024-03-25T07:25:12;99219.50;;;10.08;63.54
84884;BME280;75145;49.188;8.122;2024-03-25T07:27:38;99218.84;;;11.13;59.90
84884;BME280;75145;49.188;8.122;2024-03-25T07:30:04;99220.50;;;11.14;59.18
84884;BME280;75145;49.188;8.122;2024-03-25T07:32:31;99214.59;;;11.59;59.07
84884;BME280;75145;49.188;8.122;2024-03-25T07:34:57;99216.47;;;11.76;57.55
84884;BME280;75145;49.188;8.122;2024-03-25T07:37:22;99216.03;;;12.73;55.36
84884;BME280;75145;49.188;8.122;2024-03-25T07:39:47;99209.91;;;13.52;52.70
84884;BME280;75145;49.188;8.122;2024-03-25T07:42:13;99192.97;;;14.21;49.50
84884;BME280;75145;49.188;8.122;2024-03-25T07:44:39;99207.81;;;13.20;53.55
84884;BME280;75145;49.188;8.122;2024-03-25T07:47:04;99200.84;;;13.97;51.10
84884;BME280;75145;49.188;8.122;2024-03-25T07:49:31;99197.25;;;14.56;50.05
84884;BME280;75145;49.188;8.122;2024-03-25T07:51:56;99183.06;;;13.97;51.26
84884;BME280;75145;49.188;8.122;2024-03-25T07:54:22;99190.19;;;14.31;49.66
84884;BME280;75145;49.188;8.122;2024-03-25T07:56:47;99195.50;;;15.30;48.78
84884;BME280;75145;49.188;8.122;2024-03-25T07:59:12;99181.97;;;15.48;47.48
84884;BME280;75145;49.188;8.122;2024-03-25T08:01:38;99184.66;;;15.23;46.32
84884;BME280;75145;49.188;8.122;2024-03-25T08:04:03;99189.66;;;15.35;47.37
84884;BME280;75145;49.188;8.122;2024-03-25T08:06:28;99175.31;;;15.60;46.45
84884;BME280;75145;49.188;8.122;2024-03-25T08:08:54;99178.84;;;16.08;46.58
84884;BME280;75145;49.188;8.122;2024-03-25T08:11:19;99179.00;;;15.35;47.24
84884;BME280;75145;49.188;8.122;2024-03-25T08:13:46;99175.50;;;15.34;46.92
84884;BME280;75145;49.188;8.122;2024-03-25T08:16:11;99172.34;;;15.39;47.13
84884;BME280;75145;49.188;8.122;2024-03-25T08:18:37;99171.09;;;16.29;45.46
84884;BME280;75145;49.188;8.122;2024-03-25T08:21:02;99175.53;;;15.26;46.75
84884;BME280;75145;49.188;8.122;2024-03-25T08:23:27;99176.16;;;16.47;45.45
84884;BME280;75145;49.188;8.122;2024-03-25T08:25:53;99174.19;;;15.63;45.91
84884;BME280;75145;49.188;8.122;2024-03-25T08:28:18;99176.63;;;16.19;46.11
84884;BME280;75145;49.188;8.122;2024-03-25T08:30:43;99159.38;;;16.61;44.76
84884;BME280;75145;49.188;8.122;2024-03-25T08:33:09;99163.72;;;17.08;44.07
84884;BME280;75145;49.188;8.122;2024-03-25T08:35:34;99155.97;;;16.44;45.59
84884;BME280;75145;49.188;8.122;2024-03-25T08:37:59;99151.50;;;17.66;43.51
84884;BME280;75145;49.188;8.122;2024-03-25T08:40:25;99153.34;;;17.95;42.48
84884;BME280;75145;49.188;8.122;2024-03-25T08:42:50;99156.88;;;17.81;42.26
84884;BME280;75145;49.188;8.122;2024-03-25T08:45:16;99155.22;;;17.80;41.69
84884;BME280;75145;49.188;8.122;2024-03-25T08:47:41;99158.03;;;18.08;41.39
84884;BME280;75145;49.188;8.122;2024-03-25T08:50:08;99161.44;;;18.52;39.24
84884;BME280;75145;49.188;8.122;2024-03-25T08:52:33;99160.13;;;18.63;38.76
84884;BME280;75145;49.188;8.122;2024-03-25T08:54:59;99163.31;;;19.16;37.60
84884;BME280;75145;49.188;8.122;2024-03-25T08:57:24;99158.22;;;18.57;37.57
84884;BME280;75145;49.188;8.122;2024-03-25T08:59:49;99164.59;;;18.20;39.44
84884;BME280;75145;49.188;8.122;2024-03-25T09:02:15;99157.50;;;19.06;36.80
84884;BME280;75145;49.188;8.122;2024-03-25T09:04:40;99149.22;;;18.29;36.95
84884;BME280;75145;49.188;8.122;2024-03-25T09:07:05;99140.97;;;16.43;42.12
84884;BME280;75145;49.188;8.122;2024-03-25T09:09:31;99146.81;;;17.16;42.37
84884;BME280;75145;49.188;8.122;2024-03-25T09:12:14;99126.41;;;17.82;40.20
84884;BME280;75145;49.188;8.122;2024-03-25T09:14:40;99129.16;;;17.59;39.77
84884;BME280;75145;49.188;8.122;2024-03-25T09:17:05;99133.94;;;17.34;38.07
84884;BME280;75145;49.188;8.122;2024-03-25T09:19:30;99117.81;;;18.73;36.65
84884;BME280;75145;49.188;8.122;2024-03-25T09:21:56;99110.38;;;18.97;35.81
84884;BME280;75145;49.188;8.122;2024-03-25T09:24:21;99116.19;;;16.04;39.63
84884;BME280;75145;49.188;8.122;2024-03-25T09:26:49;99111.72;;;14.43;43.04
84884;BME280;75145;49.188;8.122;2024-03-25T09:29:15;99106.66;;;16.32;40.58
84884;BME280;75145;49.188;8.122;2024-03-25T09:31:40;99094.19;;;17.60;38.87
84884;BME280;75145;49.188;8.122;2024-03-25T09:34:05;99096.22;;;17.58;38.06
84884;BME280;75145;49.188;8.122;2024-03-25T09:36:31;99095.75;;;16.19;38.65
84884;BME280;75145;49.188;8.122;2024-03-25T09:38:56;99096.78;;;16.10;39.27
84884;BME280;75145;49.188;8.122;2024-03-25T09:41:22;99094.09;;;16.64;38.46
84884;BME280;75145;49.188;8.122;2024-03-25T09:43:48;99084.84;;;16.29;40.32
84884;BME280;75145;49.188;8.122;2024-03-25T09:46:17;99091.66;;;17.15;37.95
84884;BME280;75145;49.188;8.122;2024-03-25T09:48:42;99082.69;;;17.75;34.83
84884;BME280;75145;49.188;8.122;2024-03-25T09:51:09;99098.75;;;14.40;41.14
84884;BME280;75145;49.188;8.122;2024-03-25T09:53:35;99091.16;;;15.57;38.88
84884;BME280;75145;49.188;8.122;2024-03-25T09:56:00;99085.00;;;15.49;39.24
84884;BME280;75145;49.188;8.122;2024-03-25T09:58:26;99085.09;;;14.27;40.70
84884;BME280;75145;49.188;8.122;2024-03-25T10:00:52;99075.13;;;14.37;42.84
84884;BME280;75145;49.188;8.122;2024-03-25T10:03:18;99060.25;;;15.32;41.36
84884;BME280;75145;49.188;8.122;2024-03-25T10:05:44;99061.31;;;15.15;39.68
84884;BME280;75145;49.188;8.122;2024-03-25T10:08:09;99061.19;;;14.67;42.94
84884;BME280;75145;49.188;8.122;2024-03-25T10:10:35;99058.34;;;14.85;42.00
84884;BME280;75145;49.188;8.122;2024-03-25T10:13:05;99052.69;;;14.39;40.96
84884;BME280;75145;49.188;8.122;2024-03-25T10:15:31;99057.03;;;15.53;37.75
84884;BME280;75145;49.188;8.122;2024-03-25T10:17:57;99051.50;;;16.70;35.86
84884;BME280;75145;49.188;8.122;2024-03-25T10:20:22;99037.31;;;17.08;34.05
84884;BME280;75145;49.188;8.122;2024-03-25T10:22:48;99047.81;;;17.83;31.87
84884;BME280;75145;49.188;8.122;2024-03-25T10:25:27;99032.22;;;18.29;31.57
84884;BME280;75145;49.188;8.122;2024-03-25T10:27:54;99028.31;;;18.68;31.38
84884;BME280;75145;49.188;8.122;2024-03-25T10:30:19;99025.88;;;18.09;31.10
84884;BME280;75145;49.188;8.122;2024-03-25T10:32:45;99020.06;;;18.27;31.96
84884;BME280;75145;49.188;8.122;2024-03-25T10:35:11;99021.09;;;18.68;32.41
84884;BME280;75145;49.188;8.122;2024-03-25T10:37:38;99015.41;;;17.78;34.24
84884;BME280;75145;49.188;8.122;2024-03-25T10:40:05;99007.69;;;17.68;33.68
84884;BME280;75145;49.188;8.122;2024-03-25T10:42:34;99011.13;;;17.47;33.01
84884;BME280;75145;49.188;8.122;2024-03-25T10:45:00;99008.41;;;15.51;35.88
84884;BME280;75145;49.188;8.122;2024-03-25T10:47:28;99006.94;;;18.10;32.18
84884;BME280;75145;49.188;8.122;2024-03-25T10:49:57;98997.09;;;18.60;30.32
84884;BME280;75145;49.188;8.122;2024-03-25T10:52:26;98990.25;;;18.30;31.18
84884;BME280;75145;49.188;8.122;2024-03-25T10:54:52;98993.78;;;18.58;31.38
84884;BME280;75145;49.188;8.122;2024-03-25T10:57:19;98989.84;;;18.33;31.26
84884;BME280;75145;49.188;8.122;2024-03-25T10:59:45;98984.63;;;18.46;30.54
84884;BME280;75145;49.188;8.122;2024-03-25T11:02:12;98975.56;;;19.98;29.21
84884;BME280;75145;49.188;8.122;2024-03-25T11:04:38;98973.97;;;19.15;30.26
84884;BME280;75145;49.188;8.122;2024-03-25T11:07:10;98964.47;;;19.06;29.25
84884;BME280;75145;49.188;8.122;2024-03-25T11:09:36;98959.63;;;19.77;30.08
84884;BME280;75145;49.188;8.122;2024-03-25T11:12:02;98948.00;;;17.17;33.40
84884;BME280;75145;49.188;8.122;2024-03-25T11:14:28;98947.22;;;19.28;30.15
84884;BME280;75145;49.188;8.122;2024-03-25T11:16:54;98945.03;;;19.45;29.45
84884;BME280;75145;49.188;8.122;2024-03-25T11:19:21;98948.59;;;19.11;28.01
84884;BME280;75145;49.188;8.122;2024-03-25T11:21:50;98932.50;;;19.11;29.15
84884;BME280;75145;49.188;8.122;2024-03-25T11:24:15;98942.31;;;18.13;30.63
84884;BME280;75145;49.188;8.122;2024-03-25T11:26:42;98933.97;;;18.51;30.64
84884;BME280;75145;49.188;8.122;2024-03-25T11:29:08;98938.75;;;18.84;29.51
84884;BME280;75145;49.188;8.122;2024-03-25T11:31:33;98923.09;;;20.82;28.68
84884;BME280;75145;49.188;8.122;2024-03-25T11:34:04;98923.84;;;18.74;29.40
84884;BME280;75145;49.188;8.122;2024-03-25T11:36:29;98930.94;;;18.89;29.35
84884;BME280;75145;49.188;8.122;2024-03-25T11:39:14;98916.31;;;18.07;29.48
84884;BME280;75145;49.188;8.122;2024-03-25T11:41:40;98916.38;;;18.42;27.74
84884;BME280;75145;49.188;8.122;2024-03-25T11:44:07;98911.44;;;19.56;27.11
84884;BME280;75145;49.188;8.122;2024-03-25T11:46:36;98905.03;;;21.60;24.99
84884;BME280;75145;49.188;8.122;2024-03-25T11:49:01;98897.06;;;20.76;26.71
84884;BME280;75145;49.188;8.122;2024-03-25T11:51:27;98900.81;;;19.95;28.46
84884;BME280;75145;49.188;8.122;2024-03-25T11:53:52;98886.34;;;20.63;27.07
84884;BME280;75145;49.188;8.122;2024-03-25T11:56:18;98891.47;;;21.42;27.47
84884;BME280;75145;49.188;8.122;2024-03-25T11:58:44;98878.19;;;22.35;25.87
84884;BME280;75145;49.188;8.122;2024-03-25T12:01:10;98874.78;;;22.89;24.52
84884;BME280;75145;49.188;8.122;2024-03-25T12:03:36;98870.47;;;21.12;26.87
84884;BME280;75145;49.188;8.122;2024-03-25T12:06:02;98861.50;;;22.88;24.75
84884;BME280;75145;49.188;8.122;2024-03-25T12:08:27;98872.13;;;19.28;26.89
84884;BME280;75145;49.188;8.122;2024-03-25T12:10:54;98859.28;;;20.44;26.23
84884;BME280;75145;49.188;8.122;2024-03-25T12:13:38;98856.59;;;22.17;24.46
84884;BME280;75145;49.188;8.122;2024-03-25T12:16:08;98849.56;;;23.74;23.65
84884;BME280;75145;49.188;8.122;2024-03-25T12:18:39;98840.72;;;23.07;23.04
84884;BME280;75145;49.188;8.122;2024-03-25T12:21:06;98839.44;;;20.39;24.42
84884;BME280;75145;49.188;8.122;2024-03-25T12:23:32;98826.19;;;21.08;26.23
84884;BME280;75145;49.188;8.122;2024-03-25T12:26:02;98820.41;;;22.68;24.00
84884;BME280;75145;49.188;8.122;2024-03-25T12:28:28;98816.94;;;21.99;24.21
84884;BME280;75145;49.188;8.122;2024-03-25T12:30:54;98814.16;;;22.12;25.14
84884;BME280;75145;49.188;8.122;2024-03-25T12:33:22;98810.94;;;21.97;25.74
84884;BME280;75145;49.188;8.122;2024-03-25T12:35:49;98798.56;;;22.76;23.05
84884;BME280;75145;49.188;8.122;2024-03-25T12:38:30;98800.81;;;20.46;26.44
84884;BME280;75145;49.188;8.122;2024-03-25T12:41:06;98792.59;;;19.95;25.20
84884;BME280;75145;49.188;8.122;2024-03-25T12:43:32;98779.47;;;21.72;24.95
84884;BME280;75145;49.188;8.122;2024-03-25T12:45:59;98779.72;;;21.89;25.01
84884;BME280;75145;49.188;8.122;2024-03-25T12:48:25;98787.03;;;21.57;24.38
84884;BME280;75145;49.188;8.122;2024-03-25T12:50:51;98768.56;;;20.46;25.01
84884;BME280;75145;49.188;8.122;2024-03-25T12:53:17;98768.59;;;20.13;24.75
84884;BME280;75145;49.188;8.122;2024-03-25T12:55:43;98771.44;;;19.06;25.25
84884;BME280;75145;49.188;8.122;2024-03-25T12:58:08;98759.47;;;17.85;27.29
84884;BME280;75145;49.188;8.122;2024-03-25T13:00:34;98751.00;;;18.50;26.38